sensor_id;sensor_type;location;lat;lon;timestamp;pressure;altitude;pressure_sealevel;temperature;humidity
32456;BME280;18912;43.270;27.942;2023-02-15T00:01:25;99162.16;;;8.87;49.78
32456;BME280;18912;43.270;27.942;2023-02-15T00:03:51;99178.72;;;8.60;50.75
32456;BME280;18912;43.270;27.942;2023-02-15T00:06:17;99173.28;;;9.00;49.89
32456;BME280;18912;43.270;27.942;2023-02-15T00:08:42;99166.19;;;9.07;49.57
32456;BME280;18912;43.270;27.942;2023-02-15T00:11:13;99175.69;;;8.63;50.58
32456;BME280;18912;43.270;27.942;2023-02-15T00:13:39;99175.81;;;9.02;50.15
32456;BME280;18912;43.270;27.942;2023-02-15T00:16:09;99176.34;;;8.81;49.95
32456;BME280;18912;43.270;27.942;2023-02-15T00:18:36;99180.72;;;8.74;50.75
32456;BME280;18912;43.270;27.942;2023-02-15T00:21:06;99180.22;;;8.63;51.06
32456;BME280;18912;43.270;27.942;2023-02-15T00:23:31;99180.03;;;8.96;50.02
32456;BME280;18912;43.270;27.942;2023-02-15T00:26:09;99176.34;;;8.73;50.56
32456;BME280;18912;43.270;27.942;2023-02-15T00:28:34;99177.38;;;8.64;51.05
32456;BME280;18912;43.270;27.942;2023-02-15T00:31:07;99168.75;;;8.69;50.80
32456;BME280;18912;43.270;27.942;2023-02-15T00:33:33;99168.94;;;8.59;51.29
32456;BME280;18912;43.270;27.942;2023-02-15T00:35:59;99173.66;;;8.33;51.49
32456;BME280;18912;43.270;27.942;2023-02-15T00:38:26;99160.72;;;7.71;53.16
32456;BME280;18912;43.270;27.942;2023-02-15T00:40:59;99170.47;;;8.29;52.13
32456;BME280;18912;43.270;27.942;2023-02-15T00:43:25;99162.38;;;8.29;51.96
32456;BME280;18912;43.270;27.942;2023-02-15T00:45:51;99165.25;;;8.28;51.81
32456;BME280;18912;43.270;27.942;2023-02-15T00:48:18;99163.53;;;8.11;52.34
32456;BME280;18912;43.270;27.942;2023-02-15T00:50:52;99164.09;;;7.73;53.65
32456;BME280;18912;43.270;27.942;2023-02-15T00:53:18;99162.50;;;8.20;52.40
32456;BME280;18912;43.270;27.942;2023-02-15T00:55:44;99165.56;;;8.25;52.04
32456;BME280;18912;43.270;27.942;2023-02-15T00:58:10;99159.28;;;8.08;52.43
32456;BME280;18912;43.270;27.942;2023-02-15T01:00:37;99150.75;;;8.29;52.14
32456;BME280;18912;43.270;27.942;2023-02-15T01:03:03;99168.88;;;7.95;53.37
32456;BME280;18912;43.270;27.942;2023-02-15T01:05:30;99166.53;;;8.08;52.56
32456;BME280;18912;43.270;27.942;2023-02-15T01:07:56;99178.28;;;7.99;52.82
32456;BME280;18912;43.270;27.942;2023-02-15T01:10:22;99167.41;;;8.32;52.27
32456;BME280;18912;43.270;27.942;2023-02-15T01:12:49;99174.09;;;7.88;53.13
32456;BME280;18912;43.270;27.942;2023-02-15T01:15:14;99158.81;;;8.13;52.87
32456;BME280;18912;43.270;27.942;2023-02-15T01:17:40;99162.44;;;7.80;53.94
32456;BME280;18912;43.270;27.942;2023-02-15T01:20:06;99157.59;;;8.07;52.88
32456;BME280;18912;43.270;27.942;2023-02-15T01:22:31;99160.81;;;8.19;52.60
32456;BME280;18912;43.270;27.942;2023-02-15T01:24:57;99172.53;;;7.78;53.75
32456;BME280;18912;43.270;27.942;2023-02-15T01:27:22;99171.56;;;7.45;54.52
32456;BME280;18912;43.270;27.942;2023-02-15T01:29:48;99167.44;;;7.67;54.00
32456;BME280;18912;43.270;27.942;2023-02-15T01:32:13;99177.66;;;8.05;53.28
32456;BME280;18912;43.270;27.942;2023-02-15T01:34:39;99169.19;;;7.92;53.49
32456;BME280;18912;43.270;27.942;2023-02-15T01:37:04;99162.09;;;7.75;53.56
32456;BME280;18912;43.270;27.942;2023-02-15T01:39:29;99173.81;;;7.66;54.57
32456;BME280;18912;43.270;27.942;2023-02-15T01:41:55;99160.81;;;7.11;55.70
32456;BME280;18912;43.270;27.942;2023-02-15T01:47:09;99150.88;;;7.45;54.81
32456;BME280;18912;43.270;27.942;2023-02-15T01:49:35;99146.22;;;7.55;54.54
32456;BME280;18912;43.270;27.942;2023-02-15T01:52:02;99132.50;;;7.91;53.60
32456;BME280;18912;43.270;27.942;2023-02-15T01:54:30;99145.44;;;7.71;53.96
32456;BME280;18912;43.270;27.942;2023-02-15T01:57:00;99153.78;;;7.52;54.76
32456;BME280;18912;43.270;27.942;2023-02-15T01:59:27;99154.31;;;7.64;54.51
32456;BME280;18912;43.270;27.942;2023-02-15T02:01:56;99149.56;;;7.49;54.10
32456;BME280;18912;43.270;27.942;2023-02-15T02:04:34;99166.13;;;7.71;53.85
32456;BME280;18912;43.270;27.942;2023-02-15T02:07:03;99170.44;;;7.55;54.13
32456;BME280;18912;43.270;27.942;2023-02-15T02:09:30;99171.50;;;7.71;53.93
32456;BME280;18912;43.270;27.942;2023-02-15T02:11:55;99156.66;;;7.58;54.43
32456;BME280;18912;43.270;27.942;2023-02-15T02:14:22;99170.28;;;7.57;54.68
32456;BME280;18912;43.270;27.942;2023-02-15T02:16:52;99165.22;;;7.62;54.53
32456;BME280;18912;43.270;27.942;2023-02-15T02:36:07;99172.53;;;7.36;55.77
32456;BME280;18912;43.270;27.942;2023-02-15T02:39:09;99168.38;;;7.08;56.50
32456;BME280;18912;43.270;27.942;2023-02-15T02:41:58;99166.44;;;7.26;56.57
32456;BME280;18912;43.270;27.942;2023-02-15T02:44:31;99181.88;;;7.16;56.48
32456;BME280;18912;43.270;27.942;2023-02-15T02:47:09;99183.34;;;7.44;55.88
32456;BME280;18912;43.270;27.942;2023-02-15T02:49:40;99187.75;;;7.19;56.28
32456;BME280;18912;43.270;27.942;2023-02-15T02:52:41;99184.69;;;7.14;56.16
32456;BME280;18912;43.270;27.942;2023-02-15T02:58:05;99181.06;;;7.23;56.50
32456;BME280;18912;43.270;27.942;2023-02-15T03:00:50;99186.28;;;7.25;56.50
32456;BME280;18912;43.270;27.942;2023-02-15T03:03:32;99193.16;;;7.19;56.83
32456;BME280;18912;43.270;27.942;2023-02-15T03:06:03;99183.34;;;7.10;57.49
32456;BME280;18912;43.270;27.942;2023-02-15T03:08:36;99180.28;;;7.05;57.93
32456;BME280;18912;43.270;27.942;2023-02-15T03:11:03;99187.28;;;6.73;58.74
32456;BME280;18912;43.270;27.942;2023-02-15T03:13:29;99189.94;;;6.90;57.99
32456;BME280;18912;43.270;27.942;2023-02-15T03:15:56;99169.31;;;6.73;58.76
32456;BME280;18912;43.270;27.942;2023-02-15T03:18:45;99182.59;;;6.75;59.38
32456;BME280;18912;43.270;27.942;2023-02-15T03:21:23;99185.78;;;6.70;59.21
32456;BME280;18912;43.270;27.942;2023-02-15T03:24:03;99182.63;;;7.00;58.38
32456;BME280;18912;43.270;27.942;2023-02-15T03:26:32;99192.44;;;6.92;58.36
32456;BME280;18912;43.270;27.942;2023-02-15T03:29:00;99188.84;;;7.01;58.04
32456;BME280;18912;43.270;27.942;2023-02-15T03:31:30;99188.84;;;7.01;58.61
32456;BME280;18912;43.270;27.942;2023-02-15T03:34:02;99186.22;;;7.50;57.14
32456;BME280;18912;43.270;27.942;2023-02-15T03:36:42;99188.16;;;7.32;57.43
32456;BME280;18912;43.270;27.942;2023-02-15T03:39:17;99179.44;;;7.38;56.76
32456;BME280;18912;43.270;27.942;2023-02-15T03:47:27;99206.38;;;7.46;56.73
32456;BME280;18912;43.270;27.942;2023-02-15T03:50:06;99200.56;;;7.59;56.19
32456;BME280;18912;43.270;27.942;2023-02-15T03:52:54;99212.84;;;7.62;56.39
32456;BME280;18912;43.270;27.942;2023-02-15T03:55:22;99205.28;;;7.31;56.80
32456;BME280;18912;43.270;27.942;2023-02-15T03:57:48;99207.16;;;7.39;56.74
32456;BME280;18912;43.270;27.942;2023-02-15T04:00:34;99207.38;;;6.86;58.09
32456;BME280;18912;43.270;27.942;2023-02-15T04:03:22;99214.03;;;7.25;58.06
32456;BME280;18912;43.270;27.942;2023-02-15T04:05:51;99198.25;;;7.05;57.74
32456;BME280;18912;43.270;27.942;2023-02-15T04:08:16;99204.94;;;7.26;57.41
32456;BME280;18912;43.270;27.942;2023-02-15T04:10:42;99210.19;;;7.02;58.06
32456;BME280;18912;43.270;27.942;2023-02-15T04:13:24;99204.31;;;7.32;57.25
32456;BME280;18912;43.270;27.942;2023-02-15T04:15:50;99212.13;;;7.18;57.35
32456;BME280;18912;43.270;27.942;2023-02-15T04:18:38;99208.09;;;7.22;57.64
32456;BME280;18912;43.270;27.942;2023-02-15T04:21:24;99227.19;;;7.11;57.55
32456;BME280;18912;43.270;27.942;2023-02-15T04:24:09;99217.19;;;7.21;57.45
32456;BME280;18912;43.270;27.942;2023-02-15T04:26:52;99230.09;;;7.17;57.58
32456;BME280;18912;43.270;27.942;2023-02-15T04:29:19;99231.19;;;7.32;57.36
32456;BME280;18912;43.270;27.942;2023-02-15T04:31:46;99235.09;;;7.38;57.08
32456;BME280;18912;43.270;27.942;2023-02-15T04:34:11;99232.16;;;6.98;58.38
32456;BME280;18912;43.270;27.942;2023-02-15T04:36:38;99238.91;;;7.27;57.41
32456;BME280;18912;43.270;27.942;2023-02-15T04:39:04;99243.22;;;7.46;56.84
32456;BME280;18912;43.270;27.942;2023-02-15T04:41:30;99236.25;;;7.35;57.05
32456;BME280;18912;43.270;27.942;2023-02-15T04:43:56;99244.81;;;7.05;58.03
32456;BME280;18912;43.270;27.942;2023-02-15T04:46:22;99244.94;;;7.21;57.88
32456;BME280;18912;43.270;27.942;2023-02-15T04:48:48;99246.94;;;7.19;57.64
32456;BME280;18912;43.270;27.942;2023-02-15T04:51:13;99245.75;;;7.22;57.34
32456;BME280;18912;43.270;27.942;2023-02-15T04:53:39;99250.88;;;7.33;57.26
32456;BME280;18912;43.270;27.942;2023-02-15T04:56:04;99257.06;;;7.25;57.39
32456;BME280;18912;43.270;27.942;2023-02-15T04:58:30;99256.78;;;7.11;57.76
32456;BME280;18912;43.270;27.942;2023-02-15T05:00:56;99271.78;;;6.96;58.10
32456;BME280;18912;43.270;27.942;2023-02-15T05:03:21;99270.69;;;7.32;57.42
32456;BME280;18912;43.270;27.942;2023-02-15T05:05:47;99271.50;;;6.99;57.43
32456;BME280;18912;43.270;27.942;2023-02-15T05:08:13;99280.25;;;7.01;57.95
32456;BME280;18912;43.270;27.942;2023-02-15T05:10:38;99274.41;;;6.88;57.83
32456;BME280;18912;43.270;27.942;2023-02-15T05:13:04;99282.16;;;7.08;57.58
32456;BME280;18912;43.270;27.942;2023-02-15T05:15:29;99280.88;;;7.20;57.23
32456;BME280;18912;43.270;27.942;2023-02-15T05:17:54;99278.34;;;6.93;58.11
32456;BME280;18912;43.270;27.942;2023-02-15T05:20:20;99293.06;;;7.32;57.13
32456;BME280;18912;43.270;27.942;2023-02-15T05:22:45;99276.69;;;7.26;56.78
32456;BME280;18912;43.270;27.942;2023-02-15T05:25:11;99294.53;;;7.52;56.35
32456;BME280;18912;43.270;27.942;2023-02-15T05:27:55;99288.16;;;7.02;57.22
32456;BME280;18912;43.270;27.942;2023-02-15T05:30:39;99307.56;;;7.39;57.06
32456;BME280;18912;43.270;27.942;2023-02-15T05:33:06;99308.41;;;7.40;56.56
32456;BME280;18912;43.270;27.942;2023-02-15T05:35:32;99316.44;;;7.66;56.40
32456;BME280;18912;43.270;27.942;2023-02-15T05:37:57;99324.28;;;7.85;55.73
32456;BME280;18912;43.270;27.942;2023-02-15T05:40:23;99317.91;;;7.52;55.98
32456;BME280;18912;43.270;27.942;2023-02-15T05:42:48;99334.03;;;7.78;55.95
32456;BME280;18912;43.270;27.942;2023-02-15T05:45:14;99328.13;;;7.74;56.41
32456;BME280;18912;43.270;27.942;2023-02-15T05:47:40;99331.34;;;7.78;56.34
32456;BME280;18912;43.270;27.942;2023-02-15T05:50:06;99326.06;;;8.02;56.21
32456;BME280;18912;43.270;27.942;2023-02-15T05:52:31;99335.50;;;8.47;55.02
32456;BME280;18912;43.270;27.942;2023-02-15T05:54:57;99334.03;;;8.61;54.22
32456;BME280;18912;43.270;27.942;2023-02-15T05:57:24;99334.06;;;8.93;53.05
32456;BME280;18912;43.270;27.942;2023-02-15T05:59:49;99324.63;;;9.29;52.73
32456;BME280;18912;43.270;27.942;2023-02-15T06:02:15;99320.22;;;9.44;51.95
32456;BME280;18912;43.270;27.942;2023-02-15T06:04:40;99320.13;;;9.85;50.83
32456;BME280;18912;43.270;27.942;2023-02-15T06:07:06;99330.63;;;9.72;50.88
32456;BME280;18912;43.270;27.942;2023-02-15T06:09:31;99337.88;;;9.79;50.32
32456;BME280;18912;43.270;27.942;2023-02-15T06:11:56;99332.66;;;9.70;50.54
32456;BME280;18912;43.270;27.942;2023-02-15T06:14:22;99336.44;;;10.07;49.96
32456;BME280;18912;43.270;27.942;2023-02-15T06:16:48;99352.16;;;11.04;48.43
32456;BME280;18912;43.270;27.942;2023-02-15T06:19:13;99360.56;;;11.32;47.70
32456;BME280;18912;43.270;27.942;2023-02-15T06:21:39;99358.94;;;11.97;45.97
32456;BME280;18912;43.270;27.942;2023-02-15T06:24:04;99363.47;;;12.69;44.78
32456;BME280;18912;43.270;27.942;2023-02-15T06:26:30;99353.13;;;13.36;43.41
32456;BME280;18912;43.270;27.942;2023-02-15T06:28:55;99355.75;;;12.87;43.32
32456;BME280;18912;43.270;27.942;2023-02-15T06:31:21;99358.00;;;13.68;42.48
32456;BME280;18912;43.270;27.942;2023-02-15T06:33:46;99362.66;;;14.30;41.00
32456;BME280;18912;43.270;27.942;2023-02-15T06:36:12;99362.88;;;14.75;40.03
32456;BME280;18912;43.270;27.942;2023-02-15T06:38:38;99364.44;;;15.17;38.98
32456;BME280;18912;43.270;27.942;2023-02-15T06:41:03;99364.91;;;15.40;38.80
32456;BME280;18912;43.270;27.942;2023-02-15T06:43:29;99362.84;;;16.01;37.65
32456;BME280;18912;43.270;27.942;2023-02-15T06:45:54;99363.06;;;15.67;37.96
32456;BME280;18912;43.270;27.942;2023-02-15T06:48:19;99367.19;;;16.28;37.14
32456;BME280;18912;43.270;27.942;2023-02-15T06:50:45;99367.19;;;16.28;36.96
32456;BME280;18912;43.270;27.942;2023-02-15T06:53:10;99369.34;;;16.00;37.05
32456;BME280;18912;43.270;27.942;2023-02-15T06:55:36;99366.81;;;16.05;36.94
32456;BME280;18912;43.270;27.942;2023-02-15T06:58:01;99370.47;;;16.56;35.68
32456;BME280;18912;43.270;27.942;2023-02-15T07:00:27;99379.69;;;17.82;34.70
32456;BME280;18912;43.270;27.942;2023-02-15T07:02:57;99372.09;;;18.26;33.32
32456;BME280;18912;43.270;27.942;2023-02-15T07:05:23;99367.91;;;18.24;33.43
32456;BME280;18912;43.270;27.942;2023-02-15T07:07:49;99368.19;;;18.77;32.94
32456;BME280;18912;43.270;27.942;2023-02-15T07:10:15;99374.06;;;19.69;31.38
32456;BME280;18912;43.270;27.942;2023-02-15T07:12:40;99377.88;;;20.32;30.98
32456;BME280;18912;43.270;27.942;2023-02-15T07:15:17;99384.03;;;20.74;29.93
32456;BME280;18912;43.270;27.942;2023-02-15T07:17:46;99378.25;;;22.16;28.49
32456;BME280;18912;43.270;27.942;2023-02-15T07:20:14;99383.47;;;23.91;27.13
32456;BME280;18912;43.270;27.942;2023-02-15T07:22:40;99388.31;;;24.05;26.38
32456;BME280;18912;43.270;27.942;2023-02-15T07:25:07;99390.41;;;25.14;25.11
32456;BME280;18912;43.270;27.942;2023-02-15T07:27:33;99389.53;;;25.03;24.76
32456;BME280;18912;43.270;27.942;2023-02-15T07:30:00;99383.41;;;22.13;27.22
32456;BME280;18912;43.270;27.942;2023-02-15T07:32:29;99380.75;;;18.66;30.62
32456;BME280;18912;43.270;27.942;2023-02-15T07:34:55;99386.78;;;16.83;33.31
32456;BME280;18912;43.270;27.942;2023-02-15T07:37:21;99385.91;;;16.12;34.90
32456;BME280;18912;43.270;27.942;2023-02-15T07:39:46;99387.81;;;15.72;35.71
32456;BME280;18912;43.270;27.942;2023-02-15T07:42:12;99390.50;;;16.18;34.76
32456;BME280;18912;43.270;27.942;2023-02-15T07:44:37;99388.19;;;17.67;33.49
32456;BME280;18912;43.270;27.942;2023-02-15T07:47:03;99391.47;;;18.67;31.52
32456;BME280;18912;43.270;27.942;2023-02-15T07:49:28;99387.97;;;18.79;31.42
32456;BME280;18912;43.270;27.942;2023-02-15T07:51:53;99398.31;;;19.24;31.08
32456;BME280;18912;43.270;27.942;2023-02-15T07:54:19;99380.91;;;19.90;30.83
32456;BME280;18912;43.270;27.942;2023-02-15T07:56:44;99390.63;;;21.13;29.36
32456;BME280;18912;43.270;27.942;2023-02-15T07:59:10;99396.22;;;19.56;30.26
32456;BME280;18912;43.270;27.942;2023-02-15T08:01:37;99384.28;;;19.03;31.27
32456;BME280;18912;43.270;27.942;2023-02-15T08:04:04;99394.47;;;18.23;32.22
32456;BME280;18912;43.270;27.942;2023-02-15T08:06:33;99383.69;;;17.79;32.24
32456;BME280;18912;43.270;27.942;2023-02-15T08:08:59;99375.81;;;18.32;32.50
32456;BME280;18912;43.270;27.942;2023-02-15T08:11:29;99381.94;;;18.09;32.78
32456;BME280;18912;43.270;27.942;2023-02-15T08:14:05;99391.09;;;17.41;32.31
32456;BME280;18912;43.270;27.942;2023-02-15T08:19:22;99395.91;;;17.08;33.00
32456;BME280;18912;43.270;27.942;2023-02-15T08:21:53;99393.38;;;16.62;33.81
32456;BME280;18912;43.270;27.942;2023-02-15T08:24:21;99387.13;;;16.35;34.38
32456;BME280;18912;43.270;27.942;2023-02-15T08:26:47;99387.50;;;16.58;34.16
32456;BME280;18912;43.270;27.942;2023-02-15T08:29:18;99390.75;;;15.70;35.31
32456;BME280;18912;43.270;27.942;2023-02-15T08:31:44;99394.13;;;14.99;36.30
32456;BME280;18912;43.270;27.942;2023-02-15T08:34:10;99395.97;;;15.46;35.59
32456;BME280;18912;43.270;27.942;2023-02-15T08:36:36;99400.16;;;15.42;35.42
32456;BME280;18912;43.270;27.942;2023-02-15T08:39:04;99401.03;;;15.81;35.85
32456;BME280;18912;43.270;27.942;2023-02-15T08:41:35;99392.59;;;16.22;34.86
32456;BME280;18912;43.270;27.942;2023-02-15T08:44:04;99393.41;;;15.38;35.18
32456;BME280;18912;43.270;27.942;2023-02-15T08:46:32;99402.59;;;15.24;35.63
32456;BME280;18912;43.270;27.942;2023-02-15T08:48:59;99408.97;;;15.44;35.71
32456;BME280;18912;43.270;27.942;2023-02-15T08:51:27;99397.72;;;14.59;36.77
32456;BME280;18912;43.270;27.942;2023-02-15T08:53:55;99406.25;;;16.16;35.34
32456;BME280;18912;43.270;27.942;2023-02-15T08:56:32;99407.09;;;16.16;34.43
32456;BME280;18912;43.270;27.942;2023-02-15T08:58:58;99413.13;;;15.46;35.46
32456;BME280;18912;43.270;27.942;2023-02-15T09:01:26;99399.31;;;15.54;35.52
32456;BME280;18912;43.270;27.942;2023-02-15T09:03:56;99401.22;;;16.96;33.59
32456;BME280;18912;43.270;27.942;2023-02-15T09:06:23;99403.50;;;17.99;32.46
32456;BME280;18912;43.270;27.942;2023-02-15T09:08:50;99403.63;;;17.86;31.89
32456;BME280;18912;43.270;27.942;2023-02-15T09:13:48;99402.09;;;18.15;32.05
32456;BME280;18912;43.270;27.942;2023-02-15T09:16:14;99399.41;;;18.57;31.42
32456;BME280;18912;43.270;27.942;2023-02-15T09:18:43;99388.91;;;16.74;32.09
32456;BME280;18912;43.270;27.942;2023-02-15T09:21:12;99398.22;;;16.40;33.68
32456;BME280;18912;43.270;27.942;2023-02-15T09:23:41;99393.88;;;16.07;33.65
32456;BME280;18912;43.270;27.942;2023-02-15T09:26:19;99405.13;;;16.69;33.62
32456;BME280;18912;43.270;27.942;2023-02-15T09:28:45;99395.94;;;16.24;33.62
32456;BME280;18912;43.270;27.942;2023-02-15T09:31:17;99396.38;;;16.02;34.32
32456;BME280;18912;43.270;27.942;2023-02-15T09:33:44;99395.53;;;16.27;33.72
32456;BME280;18912;43.270;27.942;2023-02-15T09:36:19;99388.63;;;16.05;33.64
32456;BME280;18912;43.270;27.942;2023-02-15T09:38:47;99387.44;;;16.78;33.12
32456;BME280;18912;43.270;27.942;2023-02-15T09:49:52;99389.03;;;18.78;30.07
32456;BME280;18912;43.270;27.942;2023-02-15T09:55:29;99389.63;;;17.38;31.69
32456;BME280;18912;43.270;27.942;2023-02-15T10:11:14;99375.31;;;17.49;31.58
32456;BME280;18912;43.270;27.942;2023-02-15T10:19:33;99359.09;;;16.72;32.07
32456;BME280;18912;43.270;27.942;2023-02-15T10:22:16;99359.84;;;16.29;33.28
32456;BME280;18912;43.270;27.942;2023-02-15T10:28:23;99354.41;;;16.09;33.39
32456;BME280;18912;43.270;27.942;2023-02-15T10:30:56;99357.75;;;15.26;34.04
32456;BME280;18912;43.270;27.942;2023-02-15T10:33:40;99358.66;;;14.73;34.97
32456;BME280;18912;43.270;27.942;2023-02-15T10:36:32;99357.34;;;15.23;35.00
32456;BME280;18912;43.270;27.942;2023-02-15T10:39:12;99354.63;;;15.23;34.68
32456;BME280;18912;43.270;27.942;2023-02-15T10:48:33;99354.03;;;14.67;35.63
32456;BME280;18912;43.270;27.942;2023-02-15T10:51:03;99343.25;;;14.46;35.66
32456;BME280;18912;43.270;27.942;2023-02-15T11:01:47;99333.63;;;14.43;36.58
32456;BME280;18912;43.270;27.942;2023-02-15T11:07:26;99345.81;;;15.34;33.98
32456;BME280;18912;43.270;27.942;2023-02-15T11:12:45;99341.63;;;16.10;33.58
32456;BME280;18912;43.270;27.942;2023-02-15T11:17:53;99342.72;;;15.82;33.14
32456;BME280;18912;43.270;27.942;2023-02-15T11:20:30;99348.16;;;15.89;33.76
32456;BME280;18912;43.270;27.942;2023-02-15T11:22:58;99347.31;;;15.56;33.67
32456;BME280;18912;43.270;27.942;2023-02-15T11:25:30;99356.91;;;15.06;34.20
32456;BME280;18912;43.270;27.942;2023-02-15T11:27:56;99356.97;;;14.65;35.05
32456;BME280;18912;43.270;27.942;2023-02-15T11:30:25;99338.66;;;15.00;35.03
32456;BME280;18912;43.270;27.942;2023-02-15T11:32:57;99352.06;;;15.15;34.40
32456;BME280;18912;43.270;27.942;2023-02-15T11:35:33;99353.69;;;14.89;34.71
32456;BME280;18912;43.270;27.942;2023-02-15T11:38:21;99342.13;;;14.74;35.35
32456;BME280;18912;43.270;27.942;2023-02-15T11:41:02;99352.16;;;14.67;34.72
32456;BME280;18912;43.270;27.942;2023-02-15T11:46:08;99342.06;;;13.38;36.46
32456;BME280;18912;43.270;27.942;2023-02-15T11:48:35;99346.16;;;13.76;36.83
32456;BME280;18912;43.270;27.942;2023-02-15T11:51:02;99337.00;;;14.45;36.57
32456;BME280;18912;43.270;27.942;2023-02-15T11:53:32;99342.44;;;15.19;36.43
32456;BME280;18912;43.270;27.942;2023-02-15T11:55:59;99332.25;;;15.47;35.07
32456;BME280;18912;43.270;27.942;2023-02-15T12:03:50;99340.84;;;15.57;34.39
32456;BME280;18912;43.270;27.942;2023-02-15T12:06:32;99331.41;;;15.53;32.56
32456;BME280;18912;43.270;27.942;2023-02-15T12:11:45;99331.22;;;14.74;34.25
32456;BME280;18912;43.270;27.942;2023-02-15T12:14:12;99327.63;;;14.54;34.55
32456;BME280;18912;43.270;27.942;2023-02-15T12:16:46;99328.97;;;14.84;34.23
32456;BME280;18912;43.270;27.942;2023-02-15T12:19:31;99329.31;;;14.68;34.76
32456;BME280;18912;43.270;27.942;2023-02-15T12:22:01;99326.81;;;14.60;35.08
32456;BME280;18912;43.270;27.942;2023-02-15T12:24:30;99328.91;;;14.24;35.59
32456;BME280;18912;43.270;27.942;2023-02-15T12:29:45;99326.13;;;14.11;35.49
32456;BME280;18912;43.270;27.942;2023-02-15T12:32:17;99327.44;;;13.87;35.94
32456;BME280;18912;43.270;27.942;2023-02-15T12:34:44;99320.53;;;13.57;36.07
32456;BME280;18912;43.270;27.942;2023-02-15T12:37:23;99305.78;;;13.45;36.29
32456;BME280;18912;43.270;27.942;2023-02-15T12:39:58;99311.78;;;13.62;36.43
32456;BME280;18912;43.270;27.942;2023-02-15T12:42:25;99312.97;;;14.21;36.19
32456;BME280;18912;43.270;27.942;2023-02-15T12:44:59;99314.38;;;14.45;35.71
32456;BME280;18912;43.270;27.942;2023-02-15T12:47:26;99313.91;;;14.28;35.66
32456;BME280;18912;43.270;27.942;2023-02-15T12:50:24;99299.72;;;14.46;34.75
32456;BME280;18912;43.270;27.942;2023-02-15T12:53:51;99309.97;;;14.37;35.29
32456;BME280;18912;43.270;27.942;2023-02-15T12:55:55;99316.13;;;14.65;35.28
32456;BME280;18912;43.270;27.942;2023-02-15T12:58:23;99319.84;;;14.51;35.51
32456;BME280;18912;43.270;27.942;2023-02-15T13:03:35;99306.00;;;14.46;35.78
32456;BME280;18912;43.270;27.942;2023-02-15T13:06:01;99308.25;;;14.83;35.65
32456;BME280;18912;43.270;27.942;2023-02-15T13:08:33;99307.38;;;14.76;35.98
32456;BME280;18912;43.270;27.942;2023-02-15T13:11:03;99308.03;;;14.91;34.54
32456;BME280;18912;43.270;27.942;2023-02-15T13:13:35;99308.47;;;15.02;34.65
32456;BME280;18912;43.270;27.942;2023-02-15T13:16:09;99313.41;;;14.65;35.21
32456;BME280;18912;43.270;27.942;2023-02-15T13:18:37;99307.66;;;15.08;34.96
32456;BME280;18912;43.270;27.942;2023-02-15T13:21:10;99315.22;;;15.19;34.33
32456;BME280;18912;43.270;27.942;2023-02-15T13:23:39;99310.97;;;14.83;34.46
32456;BME280;18912;43.270;27.942;2023-02-15T13:26:12;99309.13;;;15.04;34.32
32456;BME280;18912;43.270;27.942;2023-02-15T13:28:43;99318.72;;;14.86;34.55
32456;BME280;18912;43.270;27.942;2023-02-15T13:31:22;99313.19;;;14.60;35.37
32456;BME280;18912;43.270;27.942;2023-02-15T13:34:01;99313.16;;;14.54;35.72
32456;BME280;18912;43.270;27.942;2023-02-15T13:39:13;99313.75;;;14.43;36.40
32456;BME280;18912;43.270;27.942;2023-02-15T13:42:03;99317.53;;;14.48;35.94
32456;BME280;18912;43.270;27.942;2023-02-15T13:44:57;99315.66;;;14.49;36.06
32456;BME280;18912;43.270;27.942;2023-02-15T13:56:24;99316.00;;;14.33;35.91
32456;BME280;18912;43.270;27.942;2023-02-15T14:15:52;99315.28;;;13.56;36.55
32456;BME280;18912;43.270;27.942;2023-02-15T14:19:05;99316.59;;;13.94;36.04
32456;BME280;18912;43.270;27.942;2023-02-15T14:21:34;99302.88;;;14.08;35.56
32456;BME280;18912;43.270;27.942;2023-02-15T14:29:56;99311.97;;;13.11;33.24
32456;BME280;18912;43.270;27.942;2023-02-15T14:33:10;99315.66;;;13.25;33.10
32456;BME280;18912;43.270;27.942;2023-02-15T14:35:28;99296.69;;;12.68;33.74
32456;BME280;18912;43.270;27.942;2023-02-15T14:38:09;99315.75;;;13.38;33.30
32456;BME280;18912;43.270;27.942;2023-02-15T14:40:50;99315.97;;;13.16;33.58
32456;BME280;18912;43.270;27.942;2023-02-15T14:49:09;99313.75;;;13.47;33.64
32456;BME280;18912;43.270;27.942;2023-02-15T14:54:09;99315.31;;;13.35;33.93
32456;BME280;18912;43.270;27.942;2023-02-15T14:56:35;99311.78;;;12.77;34.45
32456;BME280;18912;43.270;27.942;2023-02-15T14:59:13;99317.75;;;12.87;34.28
32456;BME280;18912;43.270;27.942;2023-02-15T15:01:40;99306.78;;;13.17;33.79
32456;BME280;18912;43.270;27.942;2023-02-15T15:04:13;99310.47;;;13.09;33.98
32456;BME280;18912;43.270;27.942;2023-02-15T15:07:02;99313.03;;;13.10;34.01
32456;BME280;18912;43.270;27.942;2023-02-15T15:09:31;99318.91;;;12.99;34.26
32456;BME280;18912;43.270;27.942;2023-02-15T15:14:46;99322.41;;;12.93;34.47
32456;BME280;18912;43.270;27.942;2023-02-15T15:17:51;99320.94;;;12.91;34.25
32456;BME280;18912;43.270;27.942;2023-02-15T15:22:40;99297.84;;;12.59;34.83
32456;BME280;18912;43.270;27.942;2023-02-15T15:27:45;99326.28;;;12.49;35.08
32456;BME280;18912;43.270;27.942;2023-02-15T15:41:44;99315.41;;;11.47;36.59
32456;BME280;18912;43.270;27.942;2023-02-15T15:47:42;99339.38;;;11.35;37.14
32456;BME280;18912;43.270;27.942;2023-02-15T15:50:17;99335.66;;;10.91;37.72
32456;BME280;18912;43.270;27.942;2023-02-15T15:52:52;99335.94;;;10.73;38.10
32456;BME280;18912;43.270;27.942;2023-02-15T15:55:20;99341.09;;;10.60;38.20
32456;BME280;18912;43.270;27.942;2023-02-15T15:57:50;99346.19;;;10.63;38.27
32456;BME280;18912;43.270;27.942;2023-02-15T16:02:59;99355.44;;;10.38;38.56
32456;BME280;18912;43.270;27.942;2023-02-15T16:05:25;99355.34;;;10.07;39.13
32456;BME280;18912;43.270;27.942;2023-02-15T16:07:51;99355.03;;;10.10;39.37